Rosario del Tala, Argentina
Current Conditions -  °F | °C
As of 4:00 PM on Saturday 25 Oct 2014 (Local Time) from SUSO Reporting Station
Clear Clear  
Wind Chill: 88°   Ceiling: Unl
Heat Index: 88°   Visibility: 6mi
Dew Point: 63°   Wind: 10mph
Humidity: 43%   Direction: 150°SSE
Pressure: 29.83"   Gusts: NA
Location:  32.3°S, 59.15°W
Report Text: SUSO 251900Z 15009KT CAVOK 31/17 Q1010
Loading
Personal Weather Stations






























Interactive Weather Map
Tropical Storm Tracking
New forecast layout! Learn more

10-Day Weather Forecast

Advertisements
Track Severe Weather on mobile